sensor_id;sensor_type;location;lat;lon;timestamp;temperature;humidity
9177;DHT22;4623;54.310;10.112;2022-12-15T00:02:19;-3.30;99.90
9177;DHT22;4623;54.310;10.112;2022-12-15T00:05:04;-3.30;99.90
9177;DHT22;4623;54.310;10.112;2022-12-15T00:07:48;-3.30;99.90
9177;DHT22;4623;54.310;10.112;2022-12-15T00:10:32;-3.40;99.90
9177;DHT22;4623;54.310;10.112;2022-12-15T00:13:16;-3.50;99.90
9177;DHT22;4623;54.310;10.112;2022-12-15T00:16:00;-3.50;99.90
9177;DHT22;4623;54.310;10.112;2022-12-15T00:18:44;-3.50;99.90
9177;DHT22;4623;54.310;10.112;2022-12-15T00:21:31;-3.60;99.90
9177;DHT22;4623;54.310;10.112;2022-12-15T00:24:16;-3.60;99.90
9177;DHT22;4623;54.310;10.112;2022-12-15T00:27:00;-3.70;99.90
9177;DHT22;4623;54.310;10.112;2022-12-15T00:29:44;-3.70;99.90
9177;DHT22;4623;54.310;10.112;2022-12-15T00:32:28;-3.70;99.90
9177;DHT22;4623;54.310;10.112;2022-12-15T00:35:12;-3.80;99.90
9177;DHT22;4623;54.310;10.112;2022-12-15T00:37:56;-3.80;99.90
9177;DHT22;4623;54.310;10.112;2022-12-15T00:40:40;-3.80;99.90
9177;DHT22;4623;54.310;10.112;2022-12-15T00:43:06;-3.80;99.90
9177;DHT22;4623;54.310;10.112;2022-12-15T00:45:36;-3.80;99.90
9177;DHT22;4623;54.310;10.112;2022-12-15T00:48:20;-3.80;99.90
9177;DHT22;4623;54.310;10.112;2022-12-15T00:50:46;-3.80;99.90
9177;DHT22;4623;54.310;10.112;2022-12-15T00:53:22;-3.80;99.90
9177;DHT22;4623;54.310;10.112;2022-12-15T00:56:07;-3.80;99.90
9177;DHT22;4623;54.310;10.112;2022-12-15T00:58:52;-3.80;99.90
9177;DHT22;4623;54.310;10.112;2022-12-15T01:01:37;-3.80;99.90
9177;DHT22;4623;54.310;10.112;2022-12-15T01:04:21;-3.70;99.90
9177;DHT22;4623;54.310;10.112;2022-12-15T01:07:05;-3.70;99.90
9177;DHT22;4623;54.310;10.112;2022-12-15T01:09:49;-3.70;99.90
9177;DHT22;4623;54.310;10.112;2022-12-15T01:12:33;-3.60;99.90
9177;DHT22;4623;54.310;10.112;2022-12-15T01:15:17;-3.60;99.90
9177;DHT22;4623;54.310;10.112;2022-12-15T01:18:01;-3.50;99.90
9177;DHT22;4623;54.310;10.112;2022-12-15T01:21:04;-3.40;99.90
9177;DHT22;4623;54.310;10.112;2022-12-15T01:23:30;-3.50;99.90
9177;DHT22;4623;54.310;10.112;2022-12-15T01:25:56;-3.50;99.90
9177;DHT22;4623;54.310;10.112;2022-12-15T01:28:22;-3.40;99.90
9177;DHT22;4623;54.310;10.112;2022-12-15T01:30:48;-3.50;99.90
9177;DHT22;4623;54.310;10.112;2022-12-15T01:33:15;-3.50;99.90
9177;DHT22;4623;54.310;10.112;2022-12-15T01:35:41;-3.50;99.90
9177;DHT22;4623;54.310;10.112;2022-12-15T01:38:08;-3.60;99.90
9177;DHT22;4623;54.310;10.112;2022-12-15T01:40:34;-3.60;99.90
9177;DHT22;4623;54.310;10.112;2022-12-15T01:43:20;-3.60;99.90
9177;DHT22;4623;54.310;10.112;2022-12-15T01:51:47;-3.50;99.90
9177;DHT22;4623;54.310;10.112;2022-12-15T01:54:20;-3.50;99.90
9177;DHT22;4623;54.310;10.112;2022-12-15T01:56:50;-3.40;99.90
9177;DHT22;4623;54.310;10.112;2022-12-15T01:59:21;-3.40;99.90
9177;DHT22;4623;54.310;10.112;2022-12-15T02:01:48;-3.30;99.90
9177;DHT22;4623;54.310;10.112;2022-12-15T02:04:15;-3.30;99.90
9177;DHT22;4623;54.310;10.112;2022-12-15T02:06:42;-3.30;99.90
9177;DHT22;4623;54.310;10.112;2022-12-15T02:09:07;-3.30;99.90
9177;DHT22;4623;54.310;10.112;2022-12-15T02:14:48;-3.40;99.90
9177;DHT22;4623;54.310;10.112;2022-12-15T02:31:49;-3.50;99.90
9177;DHT22;4623;54.310;10.112;2022-12-15T02:34:46;-3.50;99.90
9177;DHT22;4623;54.310;10.112;2022-12-15T02:37:23;-3.50;99.90
9177;DHT22;4623;54.310;10.112;2022-12-15T02:39:51;-3.50;99.90
9177;DHT22;4623;54.310;10.112;2022-12-15T02:42:16;-3.40;99.90
9177;DHT22;4623;54.310;10.112;2022-12-15T02:48:03;-3.40;99.90
9177;DHT22;4623;54.310;10.112;2022-12-15T02:50:56;-3.30;99.90
9177;DHT22;4623;54.310;10.112;2022-12-15T02:53:45;-3.30;99.90
9177;DHT22;4623;54.310;10.112;2022-12-15T02:59:07;-3.20;99.90
9177;DHT22;4623;54.310;10.112;2022-12-15T03:01:48;-3.10;99.90
9177;DHT22;4623;54.310;10.112;2022-12-15T03:04:17;-3.10;99.90
9177;DHT22;4623;54.310;10.112;2022-12-15T03:06:43;-3.00;99.90
9177;DHT22;4623;54.310;10.112;2022-12-15T03:09:09;-3.00;99.90
9177;DHT22;4623;54.310;10.112;2022-12-15T03:11:35;-3.00;99.90
9177;DHT22;4623;54.310;10.112;2022-12-15T03:14:01;-2.90;99.90
9177;DHT22;4623;54.310;10.112;2022-12-15T03:16:27;-2.80;99.90
9177;DHT22;4623;54.310;10.112;2022-12-15T03:18:52;-2.80;99.90
9177;DHT22;4623;54.310;10.112;2022-12-15T03:21:18;-2.90;99.90
9177;DHT22;4623;54.310;10.112;2022-12-15T03:23:43;-2.90;99.90
9177;DHT22;4623;54.310;10.112;2022-12-15T03:26:09;-2.90;99.90
9177;DHT22;4623;54.310;10.112;2022-12-15T03:28:35;-2.90;99.90
9177;DHT22;4623;54.310;10.112;2022-12-15T03:31:00;-2.90;99.90
9177;DHT22;4623;54.310;10.112;2022-12-15T03:33:26;-3.00;99.90
9177;DHT22;4623;54.310;10.112;2022-12-15T03:35:51;-3.10;99.90
9177;DHT22;4623;54.310;10.112;2022-12-15T03:38:17;-3.10;99.90
9177;DHT22;4623;54.310;10.112;2022-12-15T03:40:43;-3.20;99.90
9177;DHT22;4623;54.310;10.112;2022-12-15T03:43:08;-3.20;99.90
9177;DHT22;4623;54.310;10.112;2022-12-15T03:45:34;-3.20;99.90
9177;DHT22;4623;54.310;10.112;2022-12-15T03:47:59;-3.30;99.90
9177;DHT22;4623;54.310;10.112;2022-12-15T03:50:26;-3.30;99.90
9177;DHT22;4623;54.310;10.112;2022-12-15T03:52:54;-3.30;99.90
9177;DHT22;4623;54.310;10.112;2022-12-15T03:55:21;-3.30;99.90
9177;DHT22;4623;54.310;10.112;2022-12-15T03:57:47;-3.40;99.90
9177;DHT22;4623;54.310;10.112;2022-12-15T04:00:13;-3.40;99.90
9177;DHT22;4623;54.310;10.112;2022-12-15T04:02:39;-3.50;99.90
9177;DHT22;4623;54.310;10.112;2022-12-15T04:05:06;-3.60;99.90
9177;DHT22;4623;54.310;10.112;2022-12-15T04:07:31;-3.60;99.90
9177;DHT22;4623;54.310;10.112;2022-12-15T04:09:57;-3.60;99.90
9177;DHT22;4623;54.310;10.112;2022-12-15T04:12:22;-3.70;99.90
9177;DHT22;4623;54.310;10.112;2022-12-15T04:14:48;-3.70;99.90
9177;DHT22;4623;54.310;10.112;2022-12-15T04:17:13;-3.70;99.90
9177;DHT22;4623;54.310;10.112;2022-12-15T04:19:39;-3.70;99.90
9177;DHT22;4623;54.310;10.112;2022-12-15T04:22:23;-3.70;99.90
9177;DHT22;4623;54.310;10.112;2022-12-15T04:24:49;-3.70;99.90
9177;DHT22;4623;54.310;10.112;2022-12-15T04:27:33;-3.70;99.90
9177;DHT22;4623;54.310;10.112;2022-12-15T04:30:17;-3.70;99.90
9177;DHT22;4623;54.310;10.112;2022-12-15T04:33:01;-3.70;99.90
9177;DHT22;4623;54.310;10.112;2022-12-15T04:35:46;-3.70;99.90
9177;DHT22;4623;54.310;10.112;2022-12-15T04:38:31;-3.70;99.90
9177;DHT22;4623;54.310;10.112;2022-12-15T04:41:16;-3.70;99.90
9177;DHT22;4623;54.310;10.112;2022-12-15T04:44:01;-3.70;99.90
9177;DHT22;4623;54.310;10.112;2022-12-15T04:46:46;-3.70;99.90
9177;DHT22;4623;54.310;10.112;2022-12-15T04:49:30;-3.70;99.90
9177;DHT22;4623;54.310;10.112;2022-12-15T04:52:14;-3.70;99.90
9177;DHT22;4623;54.310;10.112;2022-12-15T04:54:58;-3.70;99.90
9177;DHT22;4623;54.310;10.112;2022-12-15T04:57:42;-3.70;99.90
9177;DHT22;4623;54.310;10.112;2022-12-15T05:00:26;-3.70;99.90
9177;DHT22;4623;54.310;10.112;2022-12-15T05:03:10;-3.70;99.90
9177;DHT22;4623;54.310;10.112;2022-12-15T05:05:54;-3.70;99.90
9177;DHT22;4623;54.310;10.112;2022-12-15T05:08:38;-3.70;99.90
9177;DHT22;4623;54.310;10.112;2022-12-15T05:11:22;-3.80;99.90
9177;DHT22;4623;54.310;10.112;2022-12-15T05:14:06;-3.80;99.90
9177;DHT22;4623;54.310;10.112;2022-12-15T05:16:50;-3.80;99.90
9177;DHT22;4623;54.310;10.112;2022-12-15T05:19:34;-3.80;99.90
9177;DHT22;4623;54.310;10.112;2022-12-15T05:22:18;-3.80;99.90
9177;DHT22;4623;54.310;10.112;2022-12-15T05:25:02;-3.80;99.90
9177;DHT22;4623;54.310;10.112;2022-12-15T05:27:46;-3.80;99.90
9177;DHT22;4623;54.310;10.112;2022-12-15T05:30:30;-3.80;99.90
9177;DHT22;4623;54.310;10.112;2022-12-15T05:33:14;-3.80;99.90
9177;DHT22;4623;54.310;10.112;2022-12-15T05:35:40;-3.90;99.90
9177;DHT22;4623;54.310;10.112;2022-12-15T05:38:05;-3.90;99.90
9177;DHT22;4623;54.310;10.112;2022-12-15T05:40:31;-3.90;99.90
9177;DHT22;4623;54.310;10.112;2022-12-15T05:42:57;-3.90;99.90
9177;DHT22;4623;54.310;10.112;2022-12-15T05:45:23;-3.90;99.90
9177;DHT22;4623;54.310;10.112;2022-12-15T05:47:50;-3.90;99.90
9177;DHT22;4623;54.310;10.112;2022-12-15T05:50:16;-3.90;99.90
9177;DHT22;4623;54.310;10.112;2022-12-15T05:52:42;-3.90;99.90
9177;DHT22;4623;54.310;10.112;2022-12-15T05:55:07;-3.90;99.90
9177;DHT22;4623;54.310;10.112;2022-12-15T05:57:33;-3.90;99.90
9177;DHT22;4623;54.310;10.112;2022-12-15T05:59:59;-4.00;99.90
9177;DHT22;4623;54.310;10.112;2022-12-15T06:02:24;-4.00;99.90
9177;DHT22;4623;54.310;10.112;2022-12-15T06:04:50;-4.10;99.90
9177;DHT22;4623;54.310;10.112;2022-12-15T06:07:15;-4.10;99.90
9177;DHT22;4623;54.310;10.112;2022-12-15T06:09:41;-4.10;99.90
9177;DHT22;4623;54.310;10.112;2022-12-15T06:12:06;-4.10;99.90
9177;DHT22;4623;54.310;10.112;2022-12-15T06:14:32;-4.10;99.90
9177;DHT22;4623;54.310;10.112;2022-12-15T06:16:57;-4.10;99.90
9177;DHT22;4623;54.310;10.112;2022-12-15T06:19:24;-4.10;99.90
9177;DHT22;4623;54.310;10.112;2022-12-15T06:21:49;-4.10;99.90
9177;DHT22;4623;54.310;10.112;2022-12-15T06:24:15;-4.10;99.90
9177;DHT22;4623;54.310;10.112;2022-12-15T06:26:41;-4.00;99.90
9177;DHT22;4623;54.310;10.112;2022-12-15T06:29:09;-4.00;99.90
9177;DHT22;4623;54.310;10.112;2022-12-15T06:31:35;-4.00;99.90
9177;DHT22;4623;54.310;10.112;2022-12-15T06:34:06;-3.80;99.90
9177;DHT22;4623;54.310;10.112;2022-12-15T06:36:32;-3.70;99.90
9177;DHT22;4623;54.310;10.112;2022-12-15T06:38:58;-3.60;99.90
9177;DHT22;4623;54.310;10.112;2022-12-15T06:41:25;-3.50;99.90
9177;DHT22;4623;54.310;10.112;2022-12-15T06:43:52;-3.50;99.90
9177;DHT22;4623;54.310;10.112;2022-12-15T06:46:20;-3.50;99.90
9177;DHT22;4623;54.310;10.112;2022-12-15T06:48:46;-3.50;99.90
9177;DHT22;4623;54.310;10.112;2022-12-15T06:51:13;-3.50;99.90
9177;DHT22;4623;54.310;10.112;2022-12-15T06:53:40;-3.50;99.90
9177;DHT22;4623;54.310;10.112;2022-12-15T06:56:16;-3.50;99.90
9177;DHT22;4623;54.310;10.112;2022-12-15T06:58:41;-3.50;99.90
9177;DHT22;4623;54.310;10.112;2022-12-15T07:01:07;-3.60;99.90
9177;DHT22;4623;54.310;10.112;2022-12-15T07:03:33;-3.60;99.90
9177;DHT22;4623;54.310;10.112;2022-12-15T07:06:01;-3.60;99.90
9177;DHT22;4623;54.310;10.112;2022-12-15T07:08:27;-3.60;99.90
9177;DHT22;4623;54.310;10.112;2022-12-15T07:10:53;-3.60;99.90
9177;DHT22;4623;54.310;10.112;2022-12-15T07:13:19;-3.60;99.90
9177;DHT22;4623;54.310;10.112;2022-12-15T07:15:44;-3.60;99.90
9177;DHT22;4623;54.310;10.112;2022-12-15T07:18:10;-3.60;99.90
9177;DHT22;4623;54.310;10.112;2022-12-15T07:20:35;-3.60;99.90
9177;DHT22;4623;54.310;10.112;2022-12-15T07:23:01;-3.60;99.90
9177;DHT22;4623;54.310;10.112;2022-12-15T07:25:32;-3.50;99.90
9177;DHT22;4623;54.310;10.112;2022-12-15T07:27:59;-3.50;99.90
9177;DHT22;4623;54.310;10.112;2022-12-15T07:30:25;-3.50;99.90
9177;DHT22;4623;54.310;10.112;2022-12-15T07:32:50;-3.40;99.90
9177;DHT22;4623;54.310;10.112;2022-12-15T07:35:16;-3.30;99.90
9177;DHT22;4623;54.310;10.112;2022-12-15T07:37:42;-3.30;99.90
9177;DHT22;4623;54.310;10.112;2022-12-15T07:40:08;-3.20;99.90
9177;DHT22;4623;54.310;10.112;2022-12-15T07:42:34;-3.00;99.90
9177;DHT22;4623;54.310;10.112;2022-12-15T07:44:59;-2.90;99.90
9177;DHT22;4623;54.310;10.112;2022-12-15T07:47:25;-2.90;99.90
9177;DHT22;4623;54.310;10.112;2022-12-15T07:49:52;-2.90;99.90
9177;DHT22;4623;54.310;10.112;2022-12-15T07:52:18;-2.80;99.90
9177;DHT22;4623;54.310;10.112;2022-12-15T07:54:44;-2.70;99.90
9177;DHT22;4623;54.310;10.112;2022-12-15T07:57:10;-2.70;99.90
9177;DHT22;4623;54.310;10.112;2022-12-15T07:59:35;-2.60;99.90
9177;DHT22;4623;54.310;10.112;2022-12-15T08:02:01;-2.60;99.90
9177;DHT22;4623;54.310;10.112;2022-12-15T08:04:29;-2.50;99.90
9177;DHT22;4623;54.310;10.112;2022-12-15T08:06:58;-2.40;99.90
9177;DHT22;4623;54.310;10.112;2022-12-15T08:09:24;-2.20;99.90
9177;DHT22;4623;54.310;10.112;2022-12-15T08:11:49;-2.20;99.90
9177;DHT22;4623;54.310;10.112;2022-12-15T08:14:16;-2.20;99.90
9177;DHT22;4623;54.310;10.112;2022-12-15T08:16:42;-2.20;99.90
9177;DHT22;4623;54.310;10.112;2022-12-15T08:19:11;-2.20;99.90
9177;DHT22;4623;54.310;10.112;2022-12-15T08:21:41;-2.20;99.90
9177;DHT22;4623;54.310;10.112;2022-12-15T08:24:07;-2.10;99.90
9177;DHT22;4623;54.310;10.112;2022-12-15T08:26:34;-2.10;99.90
9177;DHT22;4623;54.310;10.112;2022-12-15T08:29:01;-2.10;99.90
9177;DHT22;4623;54.310;10.112;2022-12-15T08:31:28;-2.20;99.90
9177;DHT22;4623;54.310;10.112;2022-12-15T08:33:55;-2.20;99.90
9177;DHT22;4623;54.310;10.112;2022-12-15T08:36:22;-2.20;99.90
9177;DHT22;4623;54.310;10.112;2022-12-15T08:38:47;-2.20;99.90
9177;DHT22;4623;54.310;10.112;2022-12-15T08:41:19;-2.20;99.90
9177;DHT22;4623;54.310;10.112;2022-12-15T08:43:46;-2.20;99.90
9177;DHT22;4623;54.310;10.112;2022-12-15T08:46:12;-2.10;99.90
9177;DHT22;4623;54.310;10.112;2022-12-15T08:48:38;-2.10;99.90
9177;DHT22;4623;54.310;10.112;2022-12-15T08:51:04;-2.00;99.90
9177;DHT22;4623;54.310;10.112;2022-12-15T08:53:33;-2.00;99.90
9177;DHT22;4623;54.310;10.112;2022-12-15T08:56:04;-2.00;99.90
9177;DHT22;4623;54.310;10.112;2022-12-15T08:58:30;-2.00;99.90
9177;DHT22;4623;54.310;10.112;2022-12-15T09:01:04;-2.10;99.90
9177;DHT22;4623;54.310;10.112;2022-12-15T09:03:30;-2.00;99.90
9177;DHT22;4623;54.310;10.112;2022-12-15T09:06:04;-2.00;99.90
9177;DHT22;4623;54.310;10.112;2022-12-15T09:08:30;-1.90;99.90
9177;DHT22;4623;54.310;10.112;2022-12-15T09:10:57;-1.90;99.90
9177;DHT22;4623;54.310;10.112;2022-12-15T09:13:23;-1.90;99.90
9177;DHT22;4623;54.310;10.112;2022-12-15T09:16:02;-1.80;99.90
9177;DHT22;4623;54.310;10.112;2022-12-15T09:18:29;-1.80;99.90
9177;DHT22;4623;54.310;10.112;2022-12-15T09:21:00;-1.70;99.90
9177;DHT22;4623;54.310;10.112;2022-12-15T09:23:26;-1.50;99.90
9177;DHT22;4623;54.310;10.112;2022-12-15T09:25:58;-1.40;99.90
9177;DHT22;4623;54.310;10.112;2022-12-15T09:28:24;-1.20;99.90
9177;DHT22;4623;54.310;10.112;2022-12-15T09:30:50;-1.10;99.90
9177;DHT22;4623;54.310;10.112;2022-12-15T09:33:16;-1.10;99.90
9177;DHT22;4623;54.310;10.112;2022-12-15T09:35:49;-1.00;99.90
9177;DHT22;4623;54.310;10.112;2022-12-15T09:38:14;-0.90;99.90
9177;DHT22;4623;54.310;10.112;2022-12-15T09:40:40;-0.80;99.90
9177;DHT22;4623;54.310;10.112;2022-12-15T09:43:08;-0.80;99.90
9177;DHT22;4623;54.310;10.112;2022-12-15T09:45:41;-0.80;99.90
9177;DHT22;4623;54.310;10.112;2022-12-15T09:48:13;-0.70;99.90
9177;DHT22;4623;54.310;10.112;2022-12-15T09:50:42;-0.70;99.90
9177;DHT22;4623;54.310;10.112;2022-12-15T09:53:12;-0.60;99.90
9177;DHT22;4623;54.310;10.112;2022-12-15T09:55:38;-0.50;99.90
9177;DHT22;4623;54.310;10.112;2022-12-15T10:01:21;-0.30;99.90
9177;DHT22;4623;54.310;10.112;2022-12-15T10:04:18;-0.20;99.90
9177;DHT22;4623;54.310;10.112;2022-12-15T10:06:54;-0.20;99.90
9177;DHT22;4623;54.310;10.112;2022-12-15T10:09:25;-0.20;99.90
9177;DHT22;4623;54.310;10.112;2022-12-15T10:12:16;-0.10;99.90
9177;DHT22;4623;54.310;10.112;2022-12-15T10:17:23;-0.10;99.90
9177;DHT22;4623;54.310;10.112;2022-12-15T10:20:00;-0.10;99.90
9177;DHT22;4623;54.310;10.112;2022-12-15T10:22:32;-0.20;99.90
9177;DHT22;4623;54.310;10.112;2022-12-15T10:30:26;-0.10;99.90
9177;DHT22;4623;54.310;10.112;2022-12-15T10:33:15;-0.10;99.90
9177;DHT22;4623;54.310;10.112;2022-12-15T10:35:44;0.00;99.90
9177;DHT22;4623;54.310;10.112;2022-12-15T10:41:00;0.30;99.90
9177;DHT22;4623;54.310;10.112;2022-12-15T10:46:18;0.50;99.90
9177;DHT22;4623;54.310;10.112;2022-12-15T10:51:29;0.60;99.90
9177;DHT22;4623;54.310;10.112;2022-12-15T10:54:03;0.40;99.90
9177;DHT22;4623;54.310;10.112;2022-12-15T10:56:30;0.30;99.90
9177;DHT22;4623;54.310;10.112;2022-12-15T10:59:30;0.30;99.90
9177;DHT22;4623;54.310;10.112;2022-12-15T11:04:58;0.40;99.90
9177;DHT22;4623;54.310;10.112;2022-12-15T11:07:37;0.40;99.90
9177;DHT22;4623;54.310;10.112;2022-12-15T11:10:20;0.50;99.90
9177;DHT22;4623;54.310;10.112;2022-12-15T11:13:14;0.50;99.90
9177;DHT22;4623;54.310;10.112;2022-12-15T11:18:28;0.20;99.90
9177;DHT22;4623;54.310;10.112;2022-12-15T11:32:22;0.40;99.90
9177;DHT22;4623;54.310;10.112;2022-12-15T11:34:48;0.40;99.90
9177;DHT22;4623;54.310;10.112;2022-12-15T11:48:13;0.20;99.90
9177;DHT22;4623;54.310;10.112;2022-12-15T11:50:52;0.20;99.90
9177;DHT22;4623;54.310;10.112;2022-12-15T11:53:32;0.10;99.90
9177;DHT22;4623;54.310;10.112;2022-12-15T12:04:48;0.00;99.90
9177;DHT22;4623;54.310;10.112;2022-12-15T12:07:39;0.00;99.90
9177;DHT22;4623;54.310;10.112;2022-12-15T12:19:00;0.70;99.90
9177;DHT22;4623;54.310;10.112;2022-12-15T12:21:36;0.80;99.90
9177;DHT22;4623;54.310;10.112;2022-12-15T12:27:03;0.90;99.90
9177;DHT22;4623;54.310;10.112;2022-12-15T12:32:12;0.60;99.90
9177;DHT22;4623;54.310;10.112;2022-12-15T12:34:56;0.50;99.90
9177;DHT22;4623;54.310;10.112;2022-12-15T12:40:29;0.50;99.90
9177;DHT22;4623;54.310;10.112;2022-12-15T12:42:57;0.50;99.90
9177;DHT22;4623;54.310;10.112;2022-12-15T12:45:36;0.50;99.90
9177;DHT22;4623;54.310;10.112;2022-12-15T12:48:40;0.50;99.90
9177;DHT22;4623;54.310;10.112;2022-12-15T12:53:45;0.50;99.90
9177;DHT22;4623;54.310;10.112;2022-12-15T12:56:35;0.50;99.90
9177;DHT22;4623;54.310;10.112;2022-12-15T12:59:09;0.60;99.90
9177;DHT22;4623;54.310;10.112;2022-12-15T13:01:49;0.70;99.90
9177;DHT22;4623;54.310;10.112;2022-12-15T13:09:40;0.80;99.90
9177;DHT22;4623;54.310;10.112;2022-12-15T13:12:35;0.80;99.90
9177;DHT22;4623;54.310;10.112;2022-12-15T13:15:35;0.80;99.90
9177;DHT22;4623;54.310;10.112;2022-12-15T13:20:33;1.00;99.90
9177;DHT22;4623;54.310;10.112;2022-12-15T13:28:23;0.90;99.90
9177;DHT22;4623;54.310;10.112;2022-12-15T13:42:15;1.00;99.90
9177;DHT22;4623;54.310;10.112;2022-12-15T13:47:12;1.10;99.90
9177;DHT22;4623;54.310;10.112;2022-12-15T13:52:52;1.10;99.90
9177;DHT22;4623;54.310;10.112;2022-12-15T13:55:23;1.10;99.90
9177;DHT22;4623;54.310;10.112;2022-12-15T13:58:15;1.00;99.90
9177;DHT22;4623;54.310;10.112;2022-12-15T14:00:55;1.00;99.90
9177;DHT22;4623;54.310;10.112;2022-12-15T14:03:22;0.90;99.90
9177;DHT22;4623;54.310;10.112;2022-12-15T14:05:52;0.80;99.90
9177;DHT22;4623;54.310;10.112;2022-12-15T14:08:19;0.80;99.90
9177;DHT22;4623;54.310;10.112;2022-12-15T14:10:54;0.90;99.90
9177;DHT22;4623;54.310;10.112;2022-12-15T14:15:52;0.90;99.90
9177;DHT22;4623;54.310;10.112;2022-12-15T14:18:27;1.00;99.90
9177;DHT22;4623;54.310;10.112;2022-12-15T14:20:53;0.90;99.90
9177;DHT22;4623;54.310;10.112;2022-12-15T14:23:38;1.00;99.90
9177;DHT22;4623;54.310;10.112;2022-12-15T14:26:09;0.90;99.90
9177;DHT22;4623;54.310;10.112;2022-12-15T14:28:40;0.90;99.90
9177;DHT22;4623;54.310;10.112;2022-12-15T14:31:27;0.90;99.90
9177;DHT22;4623;54.310;10.112;2022-12-15T14:34:02;1.00;99.90
9177;DHT22;4623;54.310;10.112;2022-12-15T14:36:31;0.90;99.90
9177;DHT22;4623;54.310;10.112;2022-12-15T14:39:00;0.90;99.90
9177;DHT22;4623;54.310;10.112;2022-12-15T14:41:28;0.90;99.90
9177;DHT22;4623;54.310;10.112;2022-12-15T14:44:00;0.90;99.90
9177;DHT22;4623;54.310;10.112;2022-12-15T14:46:27;0.90;99.90
9177;DHT22;4623;54.310;10.112;2022-12-15T14:51:22;1.00;99.90
9177;DHT22;4623;54.310;10.112;2022-12-15T14:53:50;1.00;99.90
9177;DHT22;4623;54.310;10.112;2022-12-15T14:56:23;1.00;99.90
9177;DHT22;4623;54.310;10.112;2022-12-15T14:59:14;1.00;99.90
9177;DHT22;4623;54.310;10.112;2022-12-15T15:01:58;1.00;99.90
9177;DHT22;4623;54.310;10.112;2022-12-15T15:04:30;1.00;99.90
9177;DHT22;4623;54.310;10.112;2022-12-15T15:07:16;0.90;99.90
9177;DHT22;4623;54.310;10.112;2022-12-15T15:09:44;0.90;99.90
9177;DHT22;4623;54.310;10.112;2022-12-15T15:12:19;0.80;99.90
9177;DHT22;4623;54.310;10.112;2022-12-15T15:17:42;0.90;99.90
9177;DHT22;4623;54.310;10.112;2022-12-15T15:20:32;0.90;99.90
9177;DHT22;4623;54.310;10.112;2022-12-15T15:23:17;0.80;99.90
9177;DHT22;4623;54.310;10.112;2022-12-15T15:25:51;0.80;99.90
9177;DHT22;4623;54.310;10.112;2022-12-15T15:30:58;0.80;99.90
9177;DHT22;4623;54.310;10.112;2022-12-15T15:33:31;0.70;99.90
9177;DHT22;4623;54.310;10.112;2022-12-15T15:35:59;0.70;99.90
9177;DHT22;4623;54.310;10.112;2022-12-15T15:40:56;0.70;99.90
9177;DHT22;4623;54.310;10.112;2022-12-15T15:43:24;0.70;99.90
9177;DHT22;4623;54.310;10.112;2022-12-15T15:46:00;0.70;99.90
9177;DHT22;4623;54.310;10.112;2022-12-15T15:48:29;0.70;99.90
9177;DHT22;4623;54.310;10.112;2022-12-15T15:50:57;0.70;99.90
9177;DHT22;4623;54.310;10.112;2022-12-15T15:53:24;0.80;99.90
9177;DHT22;4623;54.310;10.112;2022-12-15T15:55:52;0.80;99.90
9177;DHT22;4623;54.310;10.112;2022-12-15T15:58:19;0.80;99.90
9177;DHT22;4623;54.310;10.112;2022-12-15T16:00:45;0.90;99.90
9177;DHT22;4623;54.310;10.112;2022-12-15T16:03:10;1.00;99.90
9177;DHT22;4623;54.310;10.112;2022-12-15T16:05:38;1.00;99.90
9177;DHT22;4623;54.310;10.112;2022-12-15T16:08:04;1.00;99.90
9177;DHT22;4623;54.310;10.112;2022-12-15T16:10:30;1.00;99.90
9177;DHT22;4623;54.310;10.112;2022-12-15T16:12:57;1.00;99.90
9177;DHT22;4623;54.310;10.112;2022-12-15T16:15:27;1.10;99.90
9177;DHT22;4623;54.310;10.112;2022-12-15T16:17:53;1.10;99.90
9177;DHT22;4623;54.310;10.112;2022-12-15T16:20:21;1.10;99.90
9177;DHT22;4623;54.310;10.112;2022-12-15T16:22:52;1.10;99.90
9177;DHT22;4623;54.310;10.112;2022-12-15T16:25:26;1.20;99.90
9177;DHT22;4623;54.310;10.112;2022-12-15T16:27:53;1.20;99.90
9177;DHT22;4623;54.310;10.112;2022-12-15T16:30:21;1.20;99.90
9177;DHT22;4623;54.310;10.112;2022-12-15T16:32:51;1.20;99.90
9177;DHT22;4623;54.310;10.112;2022-12-15T16:35:17;1.20;99.90
9177;DHT22;4623;54.310;10.112;2022-12-15T16:37:43;1.10;99.90
9177;DHT22;4623;54.310;10.112;2022-12-15T16:40:15;1.10;99.90
9177;DHT22;4623;54.310;10.112;2022-12-15T16:42:41;1.10;99.90
9177;DHT22;4623;54.310;10.112;2022-12-15T16:45:15;1.00;99.90
9177;DHT22;4623;54.310;10.112;2022-12-15T16:47:42;1.00;99.90
9177;DHT22;4623;54.310;10.112;2022-12-15T16:50:12;1.00;99.90
9177;DHT22;4623;54.310;10.112;2022-12-15T16:52:38;1.10;99.90
9177;DHT22;4623;54.310;10.112;2022-12-15T16:55:04;1.20;99.90
9177;DHT22;4623;54.310;10.112;2022-12-15T16:57:30;1.20;99.90
9177;DHT22;4623;54.310;10.112;2022-12-15T16:59:56;1.20;99.90
9177;DHT22;4623;54.310;10.112;2022-12-15T17:02:24;1.30;99.90
9177;DHT22;4623;54.310;10.112;2022-12-15T17:04:50;1.30;99.90
9177;DHT22;4623;54.310;10.112;2022-12-15T17:07:16;1.30;99.90
9177;DHT22;4623;54.310;10.112;2022-12-15T17:09:42;1.30;99.90
9177;DHT22;4623;54.310;10.112;2022-12-15T17:12:14;1.30;99.90
9177;DHT22;4623;54.310;10.112;2022-12-15T17:14:42;1.40;99.90
9177;DHT22;4623;54.310;10.112;2022-12-15T17:17:16;1.40;99.90
9177;DHT22;4623;54.310;10.112;2022-12-15T17:19:42;1.40;99.90
9177;DHT22;4623;54.310;10.112;2022-12-15T17:22:11;1.50;99.90
9177;DHT22;4623;54.310;10.112;2022-12-15T17:24:42;1.50;99.90
9177;DHT22;4623;54.310;10.112;2022-12-15T17:27:22;1.50;99.90
9177;DHT22;4623;54.310;10.112;2022-12-15T17:29:50;1.50;99.90
9177;DHT22;4623;54.310;10.112;2022-12-15T17:32:15;1.40;99.90
9177;DHT22;4623;54.310;10.112;2022-12-15T17:34:41;1.40;99.90
9177;DHT22;4623;54.310;10.112;2022-12-15T17:37:10;1.30;99.90
9177;DHT22;4623;54.310;10.112;2022-12-15T17:39:37;1.40;99.90
9177;DHT22;4623;54.310;10.112;2022-12-15T17:42:16;1.40;99.90
9177;DHT22;4623;54.310;10.112;2022-12-15T17:44:42;1.40;99.90
9177;DHT22;4623;54.310;10.112;2022-12-15T17:47:10;1.40;99.90
9177;DHT22;4623;54.310;10.112;2022-12-15T19:28:51;1.80;99.90
9177;DHT22;4623;54.310;10.112;2022-12-15T19:31:17;1.70;99.90
9177;DHT22;4623;54.310;10.112;2022-12-15T19:33:43;1.70;99.90
9177;DHT22;4623;54.310;10.112;2022-12-15T20:49:01;1.90;99.90
9177;DHT22;4623;54.310;10.112;2022-12-15T20:51:29;1.90;99.90
9177;DHT22;4623;54.310;10.112;2022-12-15T20:53:57;1.90;99.90
9177;DHT22;4623;54.310;10.112;2022-12-15T20:56:23;1.90;99.90
9177;DHT22;4623;54.310;10.112;2022-12-15T20:58:50;1.90;99.90
9177;DHT22;4623;54.310;10.112;2022-12-15T21:01:24;1.90;99.90
9177;DHT22;4623;54.310;10.112;2022-12-15T21:03:55;1.90;99.90
9177;DHT22;4623;54.310;10.112;2022-12-15T21:06:22;1.90;99.90
9177;DHT22;4623;54.310;10.112;2022-12-15T21:08:47;1.90;99.90
9177;DHT22;4623;54.310;10.112;2022-12-15T21:11:20;1.90;99.90
9177;DHT22;4623;54.310;10.112;2022-12-15T21:13:47;1.90;99.90
9177;DHT22;4623;54.310;10.112;2022-12-15T21:16:18;2.00;99.90
9177;DHT22;4623;54.310;10.112;2022-12-15T21:18:47;2.00;99.90
9177;DHT22;4623;54.310;10.112;2022-12-15T21:21:18;1.90;99.90
9177;DHT22;4623;54.310;10.112;2022-12-15T21:23:46;1.90;99.90
9177;DHT22;4623;54.310;10.112;2022-12-15T21:26:12;1.90;99.90
9177;DHT22;4623;54.310;10.112;2022-12-15T21:28:39;1.90;99.90
9177;DHT22;4623;54.310;10.112;2022-12-15T21:31:05;1.90;99.90
9177;DHT22;4623;54.310;10.112;2022-12-15T21:33:31;1.90;99.90
9177;DHT22;4623;54.310;10.112;2022-12-15T21:35:57;1.90;99.90
9177;DHT22;4623;54.310;10.112;2022-12-15T21:38:32;2.00;99.90
9177;DHT22;4623;54.310;10.112;2022-12-15T21:41:01;2.00;99.90
9177;DHT22;4623;54.310;10.112;2022-12-15T21:43:30;2.00;99.90